createdAt,value
2018-03-27T00:00:59.483Z,20.82
2018-03-27T00:01:59.725Z,20.80
2018-03-27T00:02:59.641Z,20.74
2018-03-27T00:03:59.535Z,20.75
2018-03-27T00:04:59.545Z,20.71
2018-03-27T00:05:59.688Z,20.80
2018-03-27T00:06:59.681Z,20.71
2018-03-27T00:07:59.600Z,20.71
2018-03-27T00:08:59.609Z,20.74
2018-03-27T00:09:59.624Z,20.63
2018-03-27T00:10:59.642Z,20.68
2018-03-27T00:11:59.768Z,20.64
2018-03-27T00:12:59.678Z,20.74
2018-03-27T00:13:59.688Z,20.73
2018-03-27T00:14:59.722Z,20.63
2018-03-27T00:15:59.724Z,20.73
2018-03-27T00:16:59.866Z,20.75
2018-03-27T00:17:59.857Z,20.63
2018-03-27T00:18:59.902Z,20.74
2018-03-27T00:19:59.802Z,20.73
2018-03-27T00:20:59.810Z,20.71
2018-03-27T00:21:59.948Z,20.75
2018-03-27T00:22:59.936Z,20.59
2018-03-27T00:23:59.981Z,20.74
2018-03-27T00:24:59.875Z,20.75
2018-03-27T00:25:59.897Z,20.71
2018-03-27T00:27:00.031Z,20.78
2018-03-27T00:28:00.021Z,20.80
2018-03-27T00:29:00.063Z,20.82
2018-03-27T00:29:59.952Z,20.74
2018-03-27T00:30:59.970Z,20.75
2018-03-27T00:32:00.113Z,20.82
2018-03-27T00:33:00.103Z,20.80
2018-03-27T00:34:00.145Z,20.82
2018-03-27T00:35:00.160Z,20.83
2018-03-27T00:36:00.055Z,20.77
2018-03-27T00:37:00.081Z,20.82
2018-03-27T00:38:00.240Z,20.82
2018-03-27T00:39:00.108Z,20.78
2018-03-27T00:40:00.117Z,20.78
2018-03-27T00:41:00.257Z,20.78
2018-03-27T00:42:00.149Z,20.82
2018-03-27T00:43:00.320Z,20.78
2018-03-27T00:44:00.194Z,20.83
2018-03-27T00:45:00.323Z,20.78
2018-03-27T00:46:00.339Z,20.78
2018-03-27T00:47:00.356Z,20.77
2018-03-27T00:48:00.526Z,20.78
2018-03-27T00:49:00.389Z,20.75
2018-03-27T00:50:00.407Z,20.78
2018-03-27T00:51:00.300Z,20.64
2018-03-27T00:52:00.323Z,20.71
2018-03-27T00:53:00.480Z,20.68
2018-03-27T00:54:00.470Z,20.74
2018-03-27T00:55:00.359Z,20.60
2018-03-27T00:56:00.385Z,20.60
2018-03-27T00:57:00.520Z,20.59
2018-03-27T00:58:00.567Z,20.68
2018-03-27T00:59:00.433Z,20.63
2018-03-27T01:00:00.446Z,20.68
2018-03-27T01:01:00.472Z,20.74
2018-03-27T01:02:00.470Z,20.70
2018-03-27T01:03:00.820Z,20.66
2018-03-27T01:04:00.632Z,20.70
2018-03-27T01:05:00.542Z,20.73
2018-03-27T01:06:00.666Z,20.63
2018-03-27T01:07:00.687Z,20.60
2018-03-27T01:08:00.725Z,20.74
2018-03-27T01:09:00.715Z,20.71
2018-03-27T01:10:00.737Z,20.75
2018-03-27T01:11:00.618Z,20.68
2018-03-27T01:12:00.651Z,20.74
2018-03-27T01:13:00.779Z,20.73
2018-03-27T01:14:00.946Z,20.73
2018-03-27T01:15:00.813Z,20.77
2018-03-27T01:16:00.830Z,20.75
2018-03-27T01:17:00.727Z,20.74
2018-03-27T01:18:00.737Z,20.64
2018-03-27T01:19:01.028Z,20.64
2018-03-27T01:20:00.898Z,20.75
2018-03-27T01:21:00.912Z,20.85
2018-03-27T01:22:00.929Z,20.80
2018-03-27T01:23:00.830Z,20.83
2018-03-27T01:24:01.114Z,20.78
2018-03-27T01:25:00.977Z,20.75
2018-03-27T01:26:00.875Z,20.71
2018-03-27T01:27:00.897Z,20.83
2018-03-27T01:28:01.027Z,20.77
2018-03-27T01:29:01.065Z,20.85
2018-03-27T01:30:00.935Z,20.82
2018-03-27T01:31:00.945Z,20.82
2018-03-27T01:32:00.971Z,20.78
2018-03-27T01:33:00.982Z,20.75
2018-03-27T01:34:01.326Z,20.77
2018-03-27T01:35:01.142Z,20.74
2018-03-27T01:36:01.032Z,20.80
2018-03-27T01:37:01.054Z,20.80
2018-03-27T01:38:01.065Z,20.80
2018-03-27T01:39:01.090Z,20.83
2018-03-27T01:40:01.374Z,20.85
2018-03-27T01:41:01.109Z,20.86
2018-03-27T01:42:01.256Z,20.77
2018-03-27T01:43:01.153Z,20.82
2018-03-27T01:44:01.291Z,20.88
2018-03-27T01:45:01.339Z,20.93
2018-03-27T01:46:01.203Z,20.85
2018-03-27T01:47:01.211Z,20.88
2018-03-27T01:48:01.380Z,20.75
2018-03-27T01:49:01.244Z,20.77
2018-03-27T01:50:01.418Z,20.85
2018-03-27T01:51:01.405Z,20.92
2018-03-27T01:52:01.422Z,20.95
2018-03-27T01:53:01.318Z,20.83
2018-03-27T01:54:01.330Z,20.88
2018-03-27T01:55:01.497Z,20.95
2018-03-27T01:56:01.371Z,20.88
2018-03-27T01:57:01.379Z,20.95
2018-03-27T01:58:01.402Z,20.95
2018-03-27T01:59:01.401Z,20.96
2018-03-27T02:00:01.442Z,21.00
2018-03-27T02:01:01.587Z,20.98
2018-03-27T02:02:01.587Z,21.03
2018-03-27T02:03:01.483Z,21.08
2018-03-27T02:04:01.494Z,21.01
2018-03-27T02:05:01.633Z,20.96
2018-03-27T02:06:01.675Z,21.01
2018-03-27T02:07:01.669Z,21.01
2018-03-27T02:08:01.566Z,21.00
2018-03-27T02:09:01.573Z,21.01
2018-03-27T02:10:01.593Z,21.01
2018-03-27T02:11:01.886Z,20.96
2018-03-27T02:12:01.628Z,20.96
2018-03-27T02:13:01.653Z,20.96
2018-03-27T02:14:01.660Z,20.96
2018-03-27T02:15:01.734Z,20.95
2018-03-27T02:16:01.896Z,20.95
2018-03-27T02:17:01.706Z,20.90
2018-03-27T02:18:01.849Z,20.92
2018-03-27T02:19:01.746Z,20.88
2018-03-27T02:20:01.752Z,20.90
2018-03-27T02:21:01.921Z,20.90
2018-03-27T02:22:01.917Z,20.86
2018-03-27T02:23:01.806Z,20.98
2018-03-27T02:24:01.820Z,20.86
2018-03-27T02:25:01.846Z,20.74
2018-03-27T02:26:02.136Z,20.92
2018-03-27T02:27:01.877Z,20.78
2018-03-27T02:28:01.889Z,20.73
2018-03-27T02:29:02.030Z,20.83
2018-03-27T02:30:02.049Z,20.86
2018-03-27T02:31:02.096Z,20.75
2018-03-27T02:32:01.953Z,20.74
2018-03-27T02:33:01.976Z,20.83
2018-03-27T02:34:02.113Z,20.78
2018-03-27T02:35:02.127Z,20.73
2018-03-27T02:36:02.181Z,20.82
2018-03-27T02:37:02.163Z,20.86
2018-03-27T02:38:02.065Z,20.78
2018-03-27T02:39:02.078Z,20.75
2018-03-27T02:40:02.210Z,20.75
2018-03-27T02:41:02.376Z,20.78
2018-03-27T02:42:02.116Z,20.80
2018-03-27T02:43:02.261Z,20.82
2018-03-27T02:44:02.278Z,20.78
2018-03-27T02:45:02.169Z,20.83
2018-03-27T02:46:02.458Z,20.85
2018-03-27T02:47:02.326Z,20.73
2018-03-27T02:48:02.341Z,20.82
2018-03-27T02:49:02.233Z,20.83
2018-03-27T02:50:02.258Z,20.74
2018-03-27T02:51:02.543Z,20.85
2018-03-27T02:52:02.293Z,20.86
2018-03-27T02:53:02.295Z,20.90
2018-03-27T02:54:02.439Z,20.93
2018-03-27T02:55:02.456Z,20.85
2018-03-27T02:56:02.504Z,20.93
2018-03-27T02:57:02.485Z,20.89
2018-03-27T02:58:02.507Z,20.89
2018-03-27T02:59:02.421Z,20.93
2018-03-27T03:00:02.411Z,20.93
2018-03-27T03:01:02.536Z,20.93
2018-03-27T03:02:02.445Z,20.93
2018-03-27T03:03:02.586Z,20.90
2018-03-27T03:04:02.602Z,20.88
2018-03-27T03:05:02.618Z,20.85
2018-03-27T03:06:02.666Z,20.74
2018-03-27T03:07:02.543Z,20.75
2018-03-27T03:08:02.550Z,20.85
2018-03-27T03:09:02.687Z,20.80
2018-03-27T03:10:02.700Z,20.75
2018-03-27T03:11:02.867Z,20.85
2018-03-27T03:12:02.608Z,20.75
2018-03-27T03:13:02.632Z,20.73
2018-03-27T03:14:02.648Z,20.74
2018-03-27T03:15:02.656Z,20.73
2018-03-27T03:16:02.780Z,20.67
2018-03-27T03:17:02.690Z,20.74
2018-03-27T03:18:02.713Z,20.74
2018-03-27T03:19:02.778Z,20.56
2018-03-27T03:20:02.738Z,20.67
2018-03-27T03:21:02.861Z,20.59
2018-03-27T03:22:02.773Z,20.50
2018-03-27T03:23:02.916Z,20.53
2018-03-27T03:24:02.939Z,20.60
2018-03-27T03:25:02.946Z,20.55
2018-03-27T03:27:03.019Z,20.63
2018-03-27T03:28:02.993Z,20.60
2018-03-27T03:29:03.012Z,20.56
2018-03-27T03:30:03.027Z,20.59
2018-03-27T03:31:03.064Z,20.66
2018-03-27T03:32:02.934Z,20.58
2018-03-27T03:33:03.078Z,20.63
2018-03-27T03:34:02.969Z,20.66
2018-03-27T03:36:03.159Z,20.63
2018-03-27T03:37:03.002Z,20.59
2018-03-27T03:38:03.154Z,20.56
2018-03-27T03:39:03.038Z,20.64
2018-03-27T03:40:03.190Z,20.60
2018-03-27T03:41:03.231Z,20.56
2018-03-27T03:42:03.229Z,20.66
2018-03-27T03:43:03.236Z,20.60
2018-03-27T03:44:03.252Z,20.60
2018-03-27T03:45:03.148Z,20.74
2018-03-27T03:46:03.306Z,20.63
2018-03-27T03:47:03.302Z,20.60
2018-03-27T03:48:03.209Z,20.64
2018-03-27T03:49:03.334Z,20.56
2018-03-27T03:50:03.350Z,20.64
2018-03-27T03:51:03.393Z,20.68
2018-03-27T03:52:03.380Z,20.66
2018-03-27T03:53:03.330Z,20.60
2018-03-27T03:54:03.292Z,20.63
2018-03-27T03:55:03.433Z,20.59
2018-03-27T03:56:03.557Z,20.55
2018-03-27T03:57:03.468Z,20.63
2018-03-27T03:58:03.364Z,20.66
2018-03-27T03:59:03.377Z,20.58
2018-03-27T04:00:03.392Z,20.60
2018-03-27T04:01:03.402Z,20.40
2018-03-27T04:02:03.694Z,20.52
2018-03-27T04:03:03.441Z,20.37
2018-03-27T04:04:03.575Z,20.40
2018-03-27T04:05:03.590Z,20.39
2018-03-27T04:06:03.613Z,20.40
2018-03-27T04:07:03.656Z,20.48
2018-03-27T04:08:03.517Z,20.46
2018-03-27T04:09:03.662Z,20.40
2018-03-27T04:10:03.673Z,20.42
2018-03-27T04:11:03.690Z,20.36
2018-03-27T04:12:03.710Z,20.40
2018-03-27T04:13:03.749Z,20.40
2018-03-27T04:14:03.739Z,20.42
2018-03-27T04:15:03.753Z,20.37
2018-03-27T04:16:03.652Z,20.40
2018-03-27T04:17:03.667Z,20.46
2018-03-27T04:18:03.951Z,20.37
2018-03-27T04:19:03.692Z,20.46
2018-03-27T04:20:03.848Z,20.56
2018-03-27T04:21:03.855Z,20.48
2018-03-27T04:22:03.743Z,20.53
2018-03-27T04:23:04.038Z,20.59
2018-03-27T04:24:03.898Z,20.53
2018-03-27T04:25:03.795Z,20.59
2018-03-27T04:26:03.942Z,20.58
2018-03-27T04:27:03.961Z,20.50
2018-03-27T04:28:04.120Z,20.53
2018-03-27T04:29:03.853Z,20.53
2018-03-27T04:30:03.996Z,20.46
2018-03-27T04:31:03.888Z,20.58
2018-03-27T04:32:04.034Z,20.55
2018-03-27T04:33:04.141Z,20.50
2018-03-27T04:34:04.059Z,20.56
2018-03-27T04:35:03.954Z,20.55
2018-03-27T04:36:04.091Z,20.49
2018-03-27T04:37:04.107Z,20.48
2018-03-27T04:38:04.281Z,20.46
2018-03-27T04:39:04.017Z,20.48
2018-03-27T04:40:04.164Z,20.56
2018-03-27T04:41:04.179Z,20.49
2018-03-27T04:42:04.191Z,20.48
2018-03-27T04:43:04.306Z,20.50
2018-03-27T04:44:04.221Z,20.46
2018-03-27T04:45:04.242Z,20.48
2018-03-27T04:46:04.253Z,20.48
2018-03-27T04:47:04.278Z,20.42
2018-03-27T04:48:04.392Z,20.52
2018-03-27T04:49:04.303Z,20.50
2018-03-27T04:50:04.322Z,20.49
2018-03-27T04:52:04.357Z,20.52
2018-03-27T04:53:04.343Z,20.46
2018-03-27T04:54:04.265Z,20.48
2018-03-27T04:55:04.277Z,20.46
2018-03-27T04:56:04.294Z,20.48
2018-03-27T04:57:04.309Z,20.48
2018-03-27T04:58:04.547Z,20.50
2018-03-27T04:59:04.471Z,20.44
2018-03-27T05:00:04.486Z,20.50
2018-03-27T05:01:04.499Z,20.52
2018-03-27T05:02:04.518Z,20.53
2018-03-27T05:03:04.640Z,20.49
2018-03-27T05:04:04.551Z,20.36
2018-03-27T05:05:04.567Z,20.34
2018-03-27T05:06:04.454Z,20.39
2018-03-27T05:07:04.472Z,20.39
2018-03-27T05:08:04.617Z,20.42
2018-03-27T05:09:04.601Z,20.39
2018-03-27T05:10:04.654Z,20.39
2018-03-27T05:11:04.665Z,20.40
2018-03-27T05:12:04.599Z,20.42
2018-03-27T05:13:04.564Z,20.46
2018-03-27T05:14:04.713Z,20.49
2018-03-27T05:15:04.831Z,20.52
2018-03-27T05:16:04.622Z,20.42
2018-03-27T05:17:04.764Z,20.53
2018-03-27T05:18:04.781Z,20.50
2018-03-27T05:19:04.671Z,20.44
2018-03-27T05:20:04.911Z,20.42
2018-03-27T05:21:04.822Z,20.42
2018-03-27T05:22:04.836Z,20.40
2018-03-27T05:23:04.731Z,20.36
2018-03-27T05:24:04.748Z,20.39
2018-03-27T05:25:04.911Z,20.42
2018-03-27T05:26:04.907Z,20.34
2018-03-27T05:27:04.801Z,20.44
2018-03-27T05:28:04.936Z,20.36
2018-03-27T05:29:04.950Z,20.44
2018-03-27T05:30:04.972Z,20.44
2018-03-27T05:31:05.085Z,20.40
2018-03-27T05:32:04.998Z,20.46
2018-03-27T05:33:05.015Z,20.39
2018-03-27T05:34:05.034Z,20.39
2018-03-27T05:35:04.929Z,20.39
2018-03-27T05:36:05.170Z,20.37
2018-03-27T05:37:05.079Z,20.34
2018-03-27T05:38:04.971Z,20.40
2018-03-27T05:39:05.119Z,20.42
2018-03-27T05:40:05.006Z,20.40
2018-03-27T05:41:05.243Z,20.36
2018-03-27T05:42:05.159Z,20.44
2018-03-27T05:43:05.187Z,20.34
2018-03-27T05:44:05.199Z,20.42
2018-03-27T05:45:05.208Z,20.49
2018-03-27T05:46:05.202Z,20.46
2018-03-27T05:47:05.240Z,20.37
2018-03-27T05:48:05.265Z,20.36
2018-03-27T05:49:05.149Z,20.34
2018-03-27T05:50:05.289Z,20.37
2018-03-27T05:51:05.412Z,20.39
2018-03-27T05:52:05.331Z,20.42
2018-03-27T05:53:05.211Z,20.39
2018-03-27T05:54:05.361Z,20.44
2018-03-27T05:55:05.249Z,20.40
2018-03-27T05:56:05.369Z,20.44
2018-03-27T05:57:05.401Z,20.46
2018-03-27T05:58:05.295Z,20.42
2018-03-27T05:59:05.312Z,20.39
2018-03-27T06:00:05.328Z,20.46
2018-03-27T06:01:05.468Z,20.44
2018-03-27T06:02:05.584Z,20.33
2018-03-27T06:03:05.500Z,20.44
2018-03-27T06:04:05.382Z,20.53
2018-03-27T06:05:05.471Z,20.59
2018-03-27T06:06:05.422Z,20.56
2018-03-27T06:07:05.668Z,20.58
2018-03-27T06:08:05.460Z,20.63
2018-03-27T06:09:05.599Z,20.70
2018-03-27T06:10:05.618Z,20.66
2018-03-27T06:11:05.627Z,20.66
2018-03-27T06:12:05.744Z,20.56
2018-03-27T06:13:05.536Z,20.64
2018-03-27T06:14:05.555Z,20.74
2018-03-27T06:15:05.574Z,20.73
2018-03-27T06:16:05.717Z,20.68
2018-03-27T06:17:05.829Z,20.59
2018-03-27T06:18:05.625Z,20.66
2018-03-27T06:19:05.639Z,20.59
2018-03-27T06:20:05.780Z,20.58
2018-03-27T06:21:05.666Z,20.59
2018-03-27T06:22:05.784Z,20.59
2018-03-27T06:23:05.823Z,20.53
2018-03-27T06:24:05.839Z,20.49
2018-03-27T06:25:05.860Z,20.50
2018-03-27T06:26:05.749Z,20.55
2018-03-27T06:27:05.887Z,20.66
2018-03-27T06:28:06.003Z,20.63
2018-03-27T06:29:05.794Z,20.63
2018-03-27T06:30:05.934Z,20.60
2018-03-27T06:31:05.823Z,20.60
2018-03-27T06:32:05.847Z,20.59
2018-03-27T06:33:06.091Z,20.59
2018-03-27T06:34:05.883Z,20.60
2018-03-27T06:35:06.023Z,20.63
2018-03-27T06:36:06.036Z,20.60
2018-03-27T06:37:06.055Z,20.67
2018-03-27T06:38:06.171Z,20.66
2018-03-27T06:39:05.960Z,20.64
2018-03-27T06:40:06.104Z,20.59
2018-03-27T06:41:05.986Z,20.60
2018-03-27T06:42:06.052Z,20.48
2018-03-27T06:43:06.122Z,20.52
2018-03-27T06:44:06.161Z,20.48
2018-03-27T06:45:06.178Z,20.49
2018-03-27T06:46:06.066Z,20.52
2018-03-27T06:47:06.213Z,20.48
2018-03-27T06:48:06.333Z,20.48
2018-03-27T06:49:06.119Z,20.34
2018-03-27T06:50:06.258Z,20.40
2018-03-27T06:51:06.281Z,20.46
2018-03-27T06:52:06.298Z,20.42
2018-03-27T06:53:06.283Z,20.53
2018-03-27T06:54:06.199Z,20.58
2018-03-27T06:55:06.351Z,20.58
2018-03-27T06:56:06.366Z,20.53
2018-03-27T06:57:06.370Z,20.63
2018-03-27T06:58:06.496Z,20.53
2018-03-27T06:59:06.452Z,20.50
2018-03-27T07:00:06.422Z,20.58
2018-03-27T07:01:06.436Z,20.66
2018-03-27T07:02:06.364Z,20.60
2018-03-27T07:03:06.635Z,20.63
2018-03-27T07:04:06.508Z,20.66
2018-03-27T07:05:06.403Z,20.59
2018-03-27T07:06:06.556Z,20.60
2018-03-27T07:07:06.560Z,20.59
2018-03-27T07:08:06.526Z,20.59
2018-03-27T07:09:06.595Z,20.60
2018-03-27T07:10:06.458Z,20.63
2018-03-27T07:11:06.476Z,20.68
2018-03-27T07:12:06.625Z,20.68
2018-03-27T07:13:06.635Z,20.55
2018-03-27T07:14:06.751Z,20.59
2018-03-27T07:15:06.541Z,20.71
2018-03-27T07:16:06.683Z,20.68
2018-03-27T07:17:06.697Z,20.73
2018-03-27T07:18:06.619Z,20.68
2018-03-27T07:19:06.826Z,20.75
2018-03-27T07:20:06.748Z,20.74
2018-03-27T07:21:06.763Z,20.82
2018-03-27T07:22:06.782Z,20.75
2018-03-27T07:23:06.802Z,20.77
2018-03-27T07:24:06.791Z,20.75
2018-03-27T07:25:06.831Z,20.75
2018-03-27T07:26:06.847Z,20.77
2018-03-27T07:27:06.855Z,20.83
2018-03-27T07:28:06.878Z,20.71
2018-03-27T07:29:06.895Z,20.77
2018-03-27T07:30:07.011Z,20.74
2018-03-27T07:31:06.927Z,20.82
2018-03-27T07:32:06.941Z,20.77
2018-03-27T07:33:06.960Z,20.77
2018-03-27T07:34:06.969Z,20.78
2018-03-27T07:35:07.091Z,20.74
2018-03-27T07:36:07.008Z,20.85
2018-03-27T07:37:07.021Z,20.75
2018-03-27T07:38:07.042Z,20.78
2018-03-27T07:39:06.927Z,20.80
2018-03-27T07:40:07.171Z,20.82
2018-03-27T07:41:06.960Z,20.77
2018-03-27T07:42:06.983Z,20.77
2018-03-27T07:43:07.002Z,20.74
2018-03-27T07:44:07.136Z,20.74
2018-03-27T07:45:07.256Z,20.80
2018-03-27T07:46:07.042Z,20.73
2018-03-27T07:47:07.066Z,20.73
2018-03-27T07:48:07.082Z,20.68
2018-03-27T07:49:07.099Z,20.60
2018-03-27T07:50:07.333Z,20.77
2018-03-27T07:51:07.252Z,20.74
2018-03-27T07:52:07.144Z,20.75
2018-03-27T07:53:07.153Z,20.71
2018-03-27T07:54:07.171Z,20.67
2018-03-27T07:55:07.297Z,20.74
2018-03-27T07:56:07.325Z,20.74
2018-03-27T07:57:07.224Z,20.71
2018-03-27T07:58:07.236Z,20.71
2018-03-27T07:59:07.254Z,20.60
2018-03-27T08:00:07.376Z,20.70
2018-03-27T08:01:07.285Z,20.66
2018-03-27T08:02:07.423Z,20.67
2018-03-27T08:03:07.330Z,20.71
2018-03-27T08:04:07.348Z,20.67
2018-03-27T08:05:07.457Z,20.73
2018-03-27T08:06:07.376Z,20.78
2018-03-27T08:07:07.510Z,20.85
2018-03-27T08:08:07.422Z,20.83
2018-03-27T08:09:07.426Z,20.80
2018-03-27T08:10:07.658Z,20.83
2018-03-27T08:11:07.649Z,20.75
2018-03-27T08:12:07.463Z,20.78
2018-03-27T08:13:07.605Z,20.77
2018-03-27T08:14:07.618Z,20.85
2018-03-27T08:15:07.640Z,20.74
2018-03-27T08:16:07.752Z,20.74
2018-03-27T08:17:07.541Z,20.89
2018-03-27T08:18:07.686Z,20.89
2018-03-27T08:19:07.704Z,20.88
2018-03-27T08:20:07.722Z,20.89
2018-03-27T08:21:07.622Z,20.89
2018-03-27T08:22:07.722Z,20.95
2018-03-27T08:23:07.768Z,20.96
2018-03-27T08:24:07.824Z,20.85
2018-03-27T08:25:07.681Z,20.88
2018-03-27T08:27:07.928Z,21.01
2018-03-27T08:28:07.723Z,20.92
2018-03-27T08:29:07.864Z,20.96
2018-03-27T08:30:07.760Z,20.95
2018-03-27T08:31:07.770Z,20.96
2018-03-27T08:32:08.010Z,21.01
2018-03-27T08:33:07.937Z,20.96
2018-03-27T08:34:07.820Z,20.93
2018-03-27T08:35:07.898Z,20.96
2018-03-27T08:36:07.866Z,20.98
2018-03-27T08:37:07.874Z,21.03
2018-03-27T08:38:08.112Z,20.95
2018-03-27T08:39:08.027Z,20.93
2018-03-27T08:40:08.041Z,20.95
2018-03-27T08:41:07.943Z,20.92
2018-03-27T08:42:07.954Z,20.85
2018-03-27T08:43:08.076Z,20.96
2018-03-27T08:44:07.998Z,20.90
2018-03-27T08:45:08.008Z,20.95
2018-03-27T08:46:08.143Z,20.86
2018-03-27T08:47:08.051Z,20.92
2018-03-27T08:48:08.154Z,20.86
2018-03-27T08:49:08.084Z,20.74
2018-03-27T08:50:08.212Z,20.74
2018-03-27T08:51:08.111Z,20.80
2018-03-27T08:52:08.127Z,20.74
2018-03-27T08:53:08.235Z,20.74
2018-03-27T08:54:08.334Z,20.78
2018-03-27T08:55:08.297Z,20.73
2018-03-27T08:56:08.212Z,20.63
2018-03-27T08:57:08.200Z,20.59
2018-03-27T08:58:08.323Z,20.67
2018-03-27T08:59:08.244Z,20.55
2018-03-27T09:00:08.374Z,20.60
2018-03-27T09:01:08.276Z,20.59
2018-03-27T09:02:08.407Z,20.53
2018-03-27T09:03:08.522Z,20.60
2018-03-27T09:04:08.439Z,20.55
2018-03-27T09:05:08.460Z,20.56
2018-03-27T09:06:08.354Z,20.70
2018-03-27T09:07:08.371Z,20.59
2018-03-27T09:08:08.511Z,20.70
2018-03-27T09:09:08.621Z,20.73
2018-03-27T09:10:08.409Z,20.68
2018-03-27T09:11:08.437Z,20.71
2018-03-27T09:12:08.573Z,20.75
2018-03-27T09:13:08.587Z,20.71
2018-03-27T09:14:08.574Z,20.74
2018-03-27T09:15:08.559Z,20.77
2018-03-27T09:16:08.514Z,20.74
2018-03-27T09:17:08.653Z,20.85
2018-03-27T09:18:08.675Z,20.86
2018-03-27T09:19:08.717Z,20.92
2018-03-27T09:20:08.591Z,20.77
2018-03-27T09:21:08.716Z,20.75
2018-03-27T09:22:08.619Z,20.82
2018-03-27T09:23:08.750Z,20.78
2018-03-27T09:24:08.648Z,20.77
2018-03-27T09:25:08.934Z,20.74
2018-03-27T09:26:08.679Z,20.60
2018-03-27T09:27:08.820Z,20.67
2018-03-27T09:28:08.838Z,20.71
2018-03-27T09:29:08.719Z,20.66
2018-03-27T09:30:09.013Z,20.66
2018-03-27T09:31:08.757Z,20.70
2018-03-27T09:32:08.898Z,20.73
2018-03-27T09:33:08.912Z,20.60
2018-03-27T09:34:08.802Z,20.60
2018-03-27T09:35:09.044Z,20.66
2018-03-27T09:36:08.961Z,20.63
2018-03-27T09:37:08.978Z,20.71
2018-03-27T09:38:08.873Z,20.60
2018-03-27T09:39:08.884Z,20.73
2018-03-27T09:40:08.907Z,20.73
2018-03-27T09:41:09.141Z,20.71
2018-03-27T09:42:08.966Z,20.64
2018-03-27T09:43:08.980Z,20.73
2018-03-27T09:44:09.091Z,20.68
2018-03-27T09:45:08.981Z,20.70
2018-03-27T09:46:09.104Z,20.74
2018-03-27T09:47:09.013Z,20.73
2018-03-27T09:48:09.157Z,20.68
2018-03-27T09:49:09.054Z,20.71
2018-03-27T09:50:09.071Z,20.73
2018-03-27T09:51:09.237Z,20.63
2018-03-27T09:52:09.091Z,20.75
2018-03-27T09:53:09.120Z,20.78
2018-03-27T09:54:09.118Z,20.83
2018-03-27T09:55:09.138Z,20.85
2018-03-27T09:56:09.438Z,20.89
2018-03-27T09:57:09.183Z,20.92
2018-03-27T09:58:09.193Z,20.92
2018-03-27T09:59:09.334Z,20.93
2018-03-27T10:00:09.230Z,21.10
2018-03-27T10:01:09.399Z,21.01
2018-03-27T10:02:09.257Z,21.14
2018-03-27T10:03:09.293Z,21.15
2018-03-27T10:04:09.299Z,21.17
2018-03-27T10:05:09.311Z,21.19
2018-03-27T10:06:09.437Z,21.40
2018-03-27T10:07:09.347Z,21.44
2018-03-27T10:08:09.482Z,21.50
2018-03-27T10:09:09.499Z,21.53
2018-03-27T10:10:09.394Z,21.60
2018-03-27T10:11:09.406Z,21.60
2018-03-27T10:12:09.582Z,21.70
2018-03-27T10:13:09.439Z,21.77
2018-03-27T10:14:09.465Z,21.85
2018-03-27T10:15:09.482Z,21.88
2018-03-27T10:16:09.491Z,21.97
2018-03-27T10:17:09.615Z,22.03
2018-03-27T10:18:09.524Z,22.08
2018-03-27T10:19:09.546Z,22.06
2018-03-27T10:20:09.560Z,22.21
2018-03-27T10:21:09.575Z,22.18
2018-03-27T10:22:09.697Z,22.21
2018-03-27T10:23:09.623Z,22.25
2018-03-27T10:24:09.638Z,22.22
2018-03-27T10:25:09.643Z,22.23
2018-03-27T10:26:09.657Z,22.34
2018-03-27T10:27:09.957Z,22.31
2018-03-27T10:28:09.825Z,22.34
2018-03-27T10:29:09.715Z,22.36
2018-03-27T10:30:09.739Z,22.31
2018-03-27T10:31:09.876Z,22.38
2018-03-27T10:32:09.925Z,22.37
2018-03-27T10:33:09.789Z,22.40
2018-03-27T10:34:09.805Z,22.46
2018-03-27T10:35:09.949Z,22.65
2018-03-27T10:36:09.841Z,22.74
2018-03-27T10:37:09.971Z,22.95
2018-03-27T10:38:09.872Z,23.04
2018-03-27T10:39:09.908Z,23.18
2018-03-27T10:40:09.923Z,23.40
2018-03-27T10:41:09.942Z,23.56
2018-03-27T10:42:10.154Z,23.66
2018-03-27T10:43:09.965Z,23.74
2018-03-27T10:44:09.982Z,23.85
2018-03-27T10:45:10.126Z,24.01
2018-03-27T10:46:10.030Z,24.11
2018-03-27T10:47:10.186Z,24.13
2018-03-27T10:48:10.067Z,24.26
2018-03-27T10:49:10.081Z,24.24
2018-03-27T10:50:10.215Z,24.47
2018-03-27T10:51:10.117Z,24.47
2018-03-27T10:52:10.330Z,24.55
2018-03-27T10:53:10.148Z,24.75
2018-03-27T10:54:10.164Z,24.93
2018-03-27T10:55:10.311Z,25.06
2018-03-27T10:56:10.214Z,25.12
2018-03-27T10:57:10.381Z,25.25
2018-03-27T10:58:10.264Z,25.25
2018-03-27T10:59:10.270Z,25.33
2018-03-27T11:00:10.286Z,25.41
2018-03-27T11:01:10.312Z,25.49
2018-03-27T11:02:10.475Z,25.63
2018-03-27T11:03:10.460Z,25.80
2018-03-27T11:04:10.481Z,26.08
2018-03-27T11:05:10.373Z,26.23
2018-03-27T11:06:10.392Z,26.41
2018-03-27T11:07:10.788Z,26.42
2018-03-27T11:08:10.442Z,26.63
2018-03-27T11:09:10.456Z,26.64
2018-03-27T11:10:10.464Z,26.66
2018-03-27T11:11:10.482Z,26.68
2018-03-27T11:12:10.890Z,26.74
2018-03-27T11:13:10.658Z,26.79
2018-03-27T11:14:10.556Z,26.97
2018-03-27T11:15:10.697Z,26.98
2018-03-27T11:16:10.717Z,27.03
2018-03-27T11:17:10.769Z,27.11
2018-03-27T11:18:10.647Z,27.11
2018-03-27T11:19:10.778Z,27.28
2018-03-27T11:20:10.681Z,27.28
2018-03-27T11:21:10.693Z,27.23
2018-03-27T11:22:10.869Z,27.16
2018-03-27T11:23:10.732Z,27.25
2018-03-27T11:24:10.882Z,27.18
2018-03-27T11:25:10.902Z,27.26
2018-03-27T11:26:10.922Z,27.30
2018-03-27T11:27:10.979Z,27.41
2018-03-27T11:28:10.871Z,27.48
2018-03-27T11:29:11.017Z,27.71
2018-03-27T11:30:10.888Z,27.82
2018-03-27T11:31:11.023Z,27.76
2018-03-27T11:32:11.194Z,27.85
2018-03-27T11:33:10.944Z,27.83
2018-03-27T11:34:10.959Z,27.94
2018-03-27T11:35:11.105Z,28.23
2018-03-27T11:36:11.001Z,28.22
2018-03-27T11:37:11.296Z,28.41
2018-03-27T11:38:11.167Z,28.50
2018-03-27T11:39:11.075Z,28.57
2018-03-27T11:40:11.111Z,28.75
2018-03-27T11:41:11.231Z,28.86
2018-03-27T11:42:11.400Z,29.06
2018-03-27T11:43:11.135Z,29.24
2018-03-27T11:44:11.295Z,29.50
2018-03-27T11:45:11.188Z,29.62
2018-03-27T11:47:11.383Z,30.23
2018-03-27T11:48:11.258Z,30.46
2018-03-27T11:49:11.277Z,30.55
2018-03-27T11:50:11.309Z,30.61
2018-03-27T11:51:11.443Z,30.49
2018-03-27T11:52:11.496Z,30.49
2018-03-27T11:53:11.362Z,30.62
2018-03-27T11:54:11.386Z,30.62
2018-03-27T11:55:11.408Z,30.54
2018-03-27T11:56:11.438Z,30.63
2018-03-27T11:57:11.602Z,30.59
2018-03-27T11:58:11.463Z,30.51
2018-03-27T11:59:11.504Z,30.44
2018-03-27T12:00:11.512Z,30.24
2018-03-27T12:01:11.547Z,30.29
2018-03-27T12:02:11.716Z,30.31
2018-03-27T12:03:11.586Z,30.29
2018-03-27T12:04:11.592Z,30.23
2018-03-27T12:05:11.619Z,30.35
2018-03-27T12:06:11.635Z,30.38
2018-03-27T12:07:11.809Z,30.49
2018-03-27T12:08:11.692Z,30.63
2018-03-27T12:09:11.718Z,30.52
2018-03-27T12:10:11.722Z,30.52
2018-03-27T12:11:11.748Z,30.58
2018-03-27T12:12:11.934Z,30.65
2018-03-27T12:13:11.793Z,30.73
2018-03-27T12:14:11.826Z,30.83
2018-03-27T12:15:11.870Z,30.65
2018-03-27T12:16:11.885Z,30.63
2018-03-27T12:17:12.037Z,30.61
2018-03-27T12:18:11.903Z,30.77
2018-03-27T12:19:11.954Z,30.81
2018-03-27T12:20:12.020Z,30.89
2018-03-27T12:21:11.977Z,30.67
2018-03-27T12:22:12.153Z,30.52
2018-03-27T12:23:12.014Z,30.40
2018-03-27T12:24:12.047Z,30.21
2018-03-27T12:25:12.079Z,30.26
2018-03-27T12:26:12.080Z,30.27
2018-03-27T12:27:12.251Z,30.65
2018-03-27T12:28:12.125Z,30.65
2018-03-27T12:29:12.173Z,30.78
2018-03-27T12:30:12.197Z,30.88
2018-03-27T12:31:12.192Z,31.04
2018-03-27T12:32:12.434Z,31.11
2018-03-27T12:33:12.249Z,31.23
2018-03-27T12:34:12.278Z,31.05
2018-03-27T12:35:12.297Z,30.89
2018-03-27T12:36:12.308Z,30.92
2018-03-27T12:37:12.477Z,30.83
2018-03-27T12:38:12.371Z,30.77
2018-03-27T12:39:12.387Z,30.52
2018-03-27T12:40:12.418Z,30.20
2018-03-27T12:41:12.425Z,29.95
2018-03-27T12:42:12.454Z,29.79
2018-03-27T12:43:12.638Z,29.67
2018-03-27T12:44:12.490Z,29.62
2018-03-27T12:45:12.530Z,29.62
2018-03-27T12:46:12.534Z,29.79
2018-03-27T12:47:12.553Z,29.73
2018-03-27T12:48:12.573Z,29.74
2018-03-27T12:49:12.730Z,29.74
2018-03-27T12:50:12.617Z,29.76
2018-03-27T12:51:12.640Z,29.71
2018-03-27T12:52:12.673Z,29.69
2018-03-27T12:53:12.733Z,29.59
2018-03-27T12:54:12.860Z,29.35
2018-03-27T12:55:12.747Z,29.27
2018-03-27T12:56:12.881Z,29.13
2018-03-27T12:57:12.795Z,29.02
2018-03-27T12:58:12.789Z,29.00